sensor_id;sensor_type;location;lat;lon;timestamp;temperature;humidity
5554;DHT22;2800;49.528;8.666;2023-02-28T00:01:37;0.30;89.90
5554;DHT22;2800;49.528;8.666;2023-02-28T00:04:03;0.30;90.20
5554;DHT22;2800;49.528;8.666;2023-02-28T00:06:28;0.30;90.70
5554;DHT22;2800;49.528;8.666;2023-02-28T00:08:54;0.30;90.70
5554;DHT22;2800;49.528;8.666;2023-02-28T00:11:20;0.20;91.00
5554;DHT22;2800;49.528;8.666;2023-02-28T00:13:47;0.10;91.30
5554;DHT22;2800;49.528;8.666;2023-02-28T00:16:18;0.10;92.20
5554;DHT22;2800;49.528;8.666;2023-02-28T00:18:44;0.00;92.30
5554;DHT22;2800;49.528;8.666;2023-02-28T00:21:10;0.00;92.60
5554;DHT22;2800;49.528;8.666;2023-02-28T00:23:36;0.00;92.90
5554;DHT22;2800;49.528;8.666;2023-02-28T00:26:02;0.00;93.00
5554;DHT22;2800;49.528;8.666;2023-02-28T00:28:27;0.00;93.30
5554;DHT22;2800;49.528;8.666;2023-02-28T00:30:53;0.00;93.70
5554;DHT22;2800;49.528;8.666;2023-02-28T00:33:19;-0.10;94.20
5554;DHT22;2800;49.528;8.666;2023-02-28T00:35:44;-0.10;94.10
5554;DHT22;2800;49.528;8.666;2023-02-28T00:38:12;-0.10;94.80
5554;DHT22;2800;49.528;8.666;2023-02-28T00:40:38;-0.10;95.50
5554;DHT22;2800;49.528;8.666;2023-02-28T00:43:03;-0.30;95.40
5554;DHT22;2800;49.528;8.666;2023-02-28T00:45:29;-0.40;97.10
5554;DHT22;2800;49.528;8.666;2023-02-28T00:47:54;-0.40;97.00
5554;DHT22;2800;49.528;8.666;2023-02-28T00:50:20;-0.40;98.10
5554;DHT22;2800;49.528;8.666;2023-02-28T00:52:46;-0.40;98.50
5554;DHT22;2800;49.528;8.666;2023-02-28T00:55:12;-0.50;98.10
5554;DHT22;2800;49.528;8.666;2023-02-28T00:57:37;-0.50;99.00
5554;DHT22;2800;49.528;8.666;2023-02-28T01:00:04;-0.50;98.70
5554;DHT22;2800;49.528;8.666;2023-02-28T01:02:30;-0.50;98.70
5554;DHT22;2800;49.528;8.666;2023-02-28T01:04:56;-0.50;99.30
5554;DHT22;2800;49.528;8.666;2023-02-28T01:07:22;-0.60;99.50
5554;DHT22;2800;49.528;8.666;2023-02-28T01:09:48;-0.60;99.50
5554;DHT22;2800;49.528;8.666;2023-02-28T01:12:13;-0.60;99.90
5554;DHT22;2800;49.528;8.666;2023-02-28T01:14:39;-0.60;99.90
5554;DHT22;2800;49.528;8.666;2023-02-28T01:17:05;-0.70;99.90
5554;DHT22;2800;49.528;8.666;2023-02-28T01:19:30;-0.70;99.90
5554;DHT22;2800;49.528;8.666;2023-02-28T01:21:56;-0.80;99.90
5554;DHT22;2800;49.528;8.666;2023-02-28T01:24:21;-0.70;99.90
5554;DHT22;2800;49.528;8.666;2023-02-28T01:26:47;-0.90;99.90
5554;DHT22;2800;49.528;8.666;2023-02-28T01:29:12;-0.90;99.90
5554;DHT22;2800;49.528;8.666;2023-02-28T01:31:38;-1.00;99.90
5554;DHT22;2800;49.528;8.666;2023-02-28T01:34:03;-1.00;99.90
5554;DHT22;2800;49.528;8.666;2023-02-28T01:36:29;-0.90;99.90
5554;DHT22;2800;49.528;8.666;2023-02-28T01:38:55;-0.80;99.90
5554;DHT22;2800;49.528;8.666;2023-02-28T01:41:26;-0.90;99.90
5554;DHT22;2800;49.528;8.666;2023-02-28T01:46:20;-1.00;99.90
5554;DHT22;2800;49.528;8.666;2023-02-28T01:51:33;-1.10;99.90
5554;DHT22;2800;49.528;8.666;2023-02-28T01:54:03;-1.10;99.90
5554;DHT22;2800;49.528;8.666;2023-02-28T01:56:33;-1.10;99.90
5554;DHT22;2800;49.528;8.666;2023-02-28T01:59:01;-1.00;99.90
5554;DHT22;2800;49.528;8.666;2023-02-28T02:01:27;-0.90;99.90
5554;DHT22;2800;49.528;8.666;2023-02-28T02:03:57;-0.90;99.90
5554;DHT22;2800;49.528;8.666;2023-02-28T02:06:42;-0.90;99.90
5554;DHT22;2800;49.528;8.666;2023-02-28T02:09:08;-1.00;99.90
5554;DHT22;2800;49.528;8.666;2023-02-28T02:11:35;-0.90;99.90
5554;DHT22;2800;49.528;8.666;2023-02-28T02:14:10;-1.00;99.90
5554;DHT22;2800;49.528;8.666;2023-02-28T02:22:35;-1.20;99.90
5554;DHT22;2800;49.528;8.666;2023-02-28T02:28:33;-1.20;99.90
5554;DHT22;2800;49.528;8.666;2023-02-28T02:34:16;-1.20;99.90
5554;DHT22;2800;49.528;8.666;2023-02-28T02:36:51;-1.20;99.90
5554;DHT22;2800;49.528;8.666;2023-02-28T02:41:52;-1.30;99.90
5554;DHT22;2800;49.528;8.666;2023-02-28T02:44:27;-1.20;99.90
5554;DHT22;2800;49.528;8.666;2023-02-28T02:46:58;-1.30;99.90
5554;DHT22;2800;49.528;8.666;2023-02-28T02:49:29;-1.40;99.90
5554;DHT22;2800;49.528;8.666;2023-02-28T02:51:58;-1.40;99.90
5554;DHT22;2800;49.528;8.666;2023-02-28T02:54:38;-1.40;99.90
5554;DHT22;2800;49.528;8.666;2023-02-28T02:57:11;-1.40;99.90
5554;DHT22;2800;49.528;8.666;2023-02-28T02:59:39;-1.50;99.90
5554;DHT22;2800;49.528;8.666;2023-02-28T03:02:08;-1.50;99.90
5554;DHT22;2800;49.528;8.666;2023-02-28T03:04:40;-1.60;99.90
5554;DHT22;2800;49.528;8.666;2023-02-28T03:07:07;-1.50;99.90
5554;DHT22;2800;49.528;8.666;2023-02-28T03:09:34;-1.50;99.90
5554;DHT22;2800;49.528;8.666;2023-02-28T03:12:02;-1.50;99.90
5554;DHT22;2800;49.528;8.666;2023-02-28T03:14:42;-1.50;99.90
5554;DHT22;2800;49.528;8.666;2023-02-28T03:17:20;-1.40;99.90
5554;DHT22;2800;49.528;8.666;2023-02-28T03:19:53;-1.40;99.90
5554;DHT22;2800;49.528;8.666;2023-02-28T03:22:45;-1.40;99.90
5554;DHT22;2800;49.528;8.666;2023-02-28T03:28:18;-1.40;99.90
5554;DHT22;2800;49.528;8.666;2023-02-28T03:33:33;-1.40;99.90
5554;DHT22;2800;49.528;8.666;2023-02-28T03:36:05;-1.50;99.90
5554;DHT22;2800;49.528;8.666;2023-02-28T03:38:35;-1.40;99.90
5554;DHT22;2800;49.528;8.666;2023-02-28T03:41:13;-1.50;99.90
5554;DHT22;2800;49.528;8.666;2023-02-28T03:43:44;-1.40;99.90
5554;DHT22;2800;49.528;8.666;2023-02-28T03:46:16;-1.50;99.90
5554;DHT22;2800;49.528;8.666;2023-02-28T03:48:53;-1.30;99.90
5554;DHT22;2800;49.528;8.666;2023-02-28T03:51:22;-1.30;99.90
5554;DHT22;2800;49.528;8.666;2023-02-28T03:53:54;-1.50;99.90
5554;DHT22;2800;49.528;8.666;2023-02-28T03:56:37;-1.50;99.90
5554;DHT22;2800;49.528;8.666;2023-02-28T03:59:10;-1.60;99.90
5554;DHT22;2800;49.528;8.666;2023-02-28T04:01:40;-1.60;99.90
5554;DHT22;2800;49.528;8.666;2023-02-28T04:04:07;-1.60;99.90
5554;DHT22;2800;49.528;8.666;2023-02-28T04:06:34;-1.60;99.90
5554;DHT22;2800;49.528;8.666;2023-02-28T04:09:01;-1.60;99.90
5554;DHT22;2800;49.528;8.666;2023-02-28T04:11:36;-1.60;99.90
5554;DHT22;2800;49.528;8.666;2023-02-28T04:14:03;-1.60;99.90
5554;DHT22;2800;49.528;8.666;2023-02-28T04:16:30;-1.60;99.90
5554;DHT22;2800;49.528;8.666;2023-02-28T04:18:56;-1.50;99.90
5554;DHT22;2800;49.528;8.666;2023-02-28T04:21:29;-1.50;99.90
5554;DHT22;2800;49.528;8.666;2023-02-28T04:23:55;-1.40;99.90
5554;DHT22;2800;49.528;8.666;2023-02-28T04:26:29;-1.60;99.90
5554;DHT22;2800;49.528;8.666;2023-02-28T04:28:56;-1.60;99.90
5554;DHT22;2800;49.528;8.666;2023-02-28T04:31:21;-1.60;99.90
5554;DHT22;2800;49.528;8.666;2023-02-28T04:33:47;-1.70;99.90
5554;DHT22;2800;49.528;8.666;2023-02-28T04:36:12;-1.70;99.90
5554;DHT22;2800;49.528;8.666;2023-02-28T04:38:39;-1.70;99.90
5554;DHT22;2800;49.528;8.666;2023-02-28T04:41:06;-1.70;99.90
5554;DHT22;2800;49.528;8.666;2023-02-28T04:43:32;-1.70;99.90
5554;DHT22;2800;49.528;8.666;2023-02-28T04:46:01;-1.70;99.90
5554;DHT22;2800;49.528;8.666;2023-02-28T04:48:28;-1.70;99.90
5554;DHT22;2800;49.528;8.666;2023-02-28T04:50:54;-1.80;99.90
5554;DHT22;2800;49.528;8.666;2023-02-28T04:53:20;-1.80;99.90
5554;DHT22;2800;49.528;8.666;2023-02-28T04:55:46;-1.70;99.90
5554;DHT22;2800;49.528;8.666;2023-02-28T04:58:13;-1.70;99.90
5554;DHT22;2800;49.528;8.666;2023-02-28T05:00:38;-1.70;99.90
5554;DHT22;2800;49.528;8.666;2023-02-28T05:03:04;-1.70;99.90
5554;DHT22;2800;49.528;8.666;2023-02-28T05:05:30;-1.70;99.90
5554;DHT22;2800;49.528;8.666;2023-02-28T05:07:55;-1.60;99.90
5554;DHT22;2800;49.528;8.666;2023-02-28T05:10:22;-1.70;99.90
5554;DHT22;2800;49.528;8.666;2023-02-28T05:12:48;-1.70;99.90
5554;DHT22;2800;49.528;8.666;2023-02-28T05:15:15;-1.70;99.90
5554;DHT22;2800;49.528;8.666;2023-02-28T05:17:41;-1.60;99.90
5554;DHT22;2800;49.528;8.666;2023-02-28T05:20:08;-1.60;99.90
5554;DHT22;2800;49.528;8.666;2023-02-28T05:22:37;-1.60;99.90
5554;DHT22;2800;49.528;8.666;2023-02-28T05:25:04;-1.60;99.90
5554;DHT22;2800;49.528;8.666;2023-02-28T05:27:30;-1.50;99.90
5554;DHT22;2800;49.528;8.666;2023-02-28T05:29:56;-1.60;99.90
5554;DHT22;2800;49.528;8.666;2023-02-28T05:32:21;-1.60;99.90
5554;DHT22;2800;49.528;8.666;2023-02-28T05:34:47;-1.60;99.90
5554;DHT22;2800;49.528;8.666;2023-02-28T05:37:13;-1.60;99.90
5554;DHT22;2800;49.528;8.666;2023-02-28T05:39:39;-1.60;99.90
5554;DHT22;2800;49.528;8.666;2023-02-28T05:42:04;-1.60;99.90
5554;DHT22;2800;49.528;8.666;2023-02-28T05:44:30;-1.50;99.90
5554;DHT22;2800;49.528;8.666;2023-02-28T05:46:56;-1.40;99.90
5554;DHT22;2800;49.528;8.666;2023-02-28T05:49:21;-1.50;99.90
5554;DHT22;2800;49.528;8.666;2023-02-28T05:51:47;-1.50;99.90
5554;DHT22;2800;49.528;8.666;2023-02-28T05:54:12;-1.50;99.90
5554;DHT22;2800;49.528;8.666;2023-02-28T05:56:38;-1.50;99.90
5554;DHT22;2800;49.528;8.666;2023-02-28T05:59:05;-1.50;99.90
5554;DHT22;2800;49.528;8.666;2023-02-28T06:01:42;-1.60;99.90
5554;DHT22;2800;49.528;8.666;2023-02-28T06:04:13;-1.40;99.90
5554;DHT22;2800;49.528;8.666;2023-02-28T06:06:40;-1.40;99.90
5554;DHT22;2800;49.528;8.666;2023-02-28T06:09:06;-1.30;99.90
5554;DHT22;2800;49.528;8.666;2023-02-28T06:11:32;-1.30;99.90
5554;DHT22;2800;49.528;8.666;2023-02-28T06:14:00;-1.30;99.90
5554;DHT22;2800;49.528;8.666;2023-02-28T06:16:27;-1.30;99.90
5554;DHT22;2800;49.528;8.666;2023-02-28T06:18:53;-1.20;99.90
5554;DHT22;2800;49.528;8.666;2023-02-28T06:21:21;-1.10;99.90
5554;DHT22;2800;49.528;8.666;2023-02-28T06:23:47;-0.90;99.90
5554;DHT22;2800;49.528;8.666;2023-02-28T06:26:13;-1.10;99.90
5554;DHT22;2800;49.528;8.666;2023-02-28T06:28:38;-1.20;99.90
5554;DHT22;2800;49.528;8.666;2023-02-28T06:31:09;-1.20;99.90
5554;DHT22;2800;49.528;8.666;2023-02-28T06:33:37;-1.20;99.90
5554;DHT22;2800;49.528;8.666;2023-02-28T06:36:03;-1.10;99.90
5554;DHT22;2800;49.528;8.666;2023-02-28T06:38:29;-1.20;99.90
5554;DHT22;2800;49.528;8.666;2023-02-28T06:40:55;-1.10;99.90
5554;DHT22;2800;49.528;8.666;2023-02-28T06:43:22;-1.20;99.90
5554;DHT22;2800;49.528;8.666;2023-02-28T06:45:48;-1.10;99.90
5554;DHT22;2800;49.528;8.666;2023-02-28T06:48:13;-1.00;99.90
5554;DHT22;2800;49.528;8.666;2023-02-28T06:50:39;-0.90;99.90
5554;DHT22;2800;49.528;8.666;2023-02-28T06:53:04;-0.90;99.90
5554;DHT22;2800;49.528;8.666;2023-02-28T06:55:30;-0.80;99.90
5554;DHT22;2800;49.528;8.666;2023-02-28T06:57:57;-0.20;99.90
5554;DHT22;2800;49.528;8.666;2023-02-28T07:00:22;0.20;99.90
5554;DHT22;2800;49.528;8.666;2023-02-28T07:02:48;0.30;99.90
5554;DHT22;2800;49.528;8.666;2023-02-28T07:05:14;0.50;99.90
5554;DHT22;2800;49.528;8.666;2023-02-28T07:07:39;0.90;99.90
5554;DHT22;2800;49.528;8.666;2023-02-28T07:10:12;0.90;99.90
5554;DHT22;2800;49.528;8.666;2023-02-28T07:12:39;1.10;99.90
5554;DHT22;2800;49.528;8.666;2023-02-28T07:15:05;1.40;99.90
5554;DHT22;2800;49.528;8.666;2023-02-28T07:17:31;1.50;99.90
5554;DHT22;2800;49.528;8.666;2023-02-28T07:19:57;1.60;99.90
5554;DHT22;2800;49.528;8.666;2023-02-28T07:22:22;1.80;99.90
5554;DHT22;2800;49.528;8.666;2023-02-28T07:24:48;1.80;99.90
5554;DHT22;2800;49.528;8.666;2023-02-28T07:27:13;1.60;99.90
5554;DHT22;2800;49.528;8.666;2023-02-28T07:29:49;1.90;99.90
5554;DHT22;2800;49.528;8.666;2023-02-28T07:32:14;2.10;99.90
5554;DHT22;2800;49.528;8.666;2023-02-28T07:34:40;2.10;99.90
5554;DHT22;2800;49.528;8.666;2023-02-28T07:37:05;2.40;99.90
5554;DHT22;2800;49.528;8.666;2023-02-28T07:39:31;2.20;99.90
5554;DHT22;2800;49.528;8.666;2023-02-28T07:41:56;2.60;99.90
5554;DHT22;2800;49.528;8.666;2023-02-28T07:44:22;2.90;99.60
5554;DHT22;2800;49.528;8.666;2023-02-28T07:46:47;3.30;98.00
5554;DHT22;2800;49.528;8.666;2023-02-28T07:49:13;2.80;97.00
5554;DHT22;2800;49.528;8.666;2023-02-28T07:51:39;2.90;97.20
5554;DHT22;2800;49.528;8.666;2023-02-28T07:54:04;3.00;96.80
5554;DHT22;2800;49.528;8.666;2023-02-28T07:56:30;3.10;96.40
5554;DHT22;2800;49.528;8.666;2023-02-28T07:58:56;3.40;95.50
5554;DHT22;2800;49.528;8.666;2023-02-28T08:01:21;3.10;94.80
5554;DHT22;2800;49.528;8.666;2023-02-28T08:03:47;3.50;94.50
5554;DHT22;2800;49.528;8.666;2023-02-28T08:06:20;3.30;94.20
5554;DHT22;2800;49.528;8.666;2023-02-28T08:08:46;3.70;93.80
5554;DHT22;2800;49.528;8.666;2023-02-28T08:11:12;3.60;92.80
5554;DHT22;2800;49.528;8.666;2023-02-28T08:13:38;3.70;93.20
5554;DHT22;2800;49.528;8.666;2023-02-28T08:16:03;3.80;93.40
5554;DHT22;2800;49.528;8.666;2023-02-28T08:18:29;4.10;93.30
5554;DHT22;2800;49.528;8.666;2023-02-28T08:20:54;3.90;91.70
5554;DHT22;2800;49.528;8.666;2023-02-28T08:23:20;3.70;92.10
5554;DHT22;2800;49.528;8.666;2023-02-28T08:25:53;3.90;91.40
5554;DHT22;2800;49.528;8.666;2023-02-28T08:28:19;4.40;91.60
5554;DHT22;2800;49.528;8.666;2023-02-28T08:30:45;4.70;90.80
5554;DHT22;2800;49.528;8.666;2023-02-28T08:33:10;4.70;89.30
5554;DHT22;2800;49.528;8.666;2023-02-28T08:35:36;4.70;87.20
5554;DHT22;2800;49.528;8.666;2023-02-28T08:38:02;5.10;86.60
5554;DHT22;2800;49.528;8.666;2023-02-28T08:40:28;5.10;82.60
5554;DHT22;2800;49.528;8.666;2023-02-28T08:42:53;4.50;80.80
5554;DHT22;2800;49.528;8.666;2023-02-28T08:45:19;4.40;80.20
5554;DHT22;2800;49.528;8.666;2023-02-28T08:47:44;4.30;81.10
5554;DHT22;2800;49.528;8.666;2023-02-28T08:50:10;4.60;80.50
5554;DHT22;2800;49.528;8.666;2023-02-28T08:52:36;4.70;79.20
5554;DHT22;2800;49.528;8.666;2023-02-28T08:55:01;4.80;80.20
5554;DHT22;2800;49.528;8.666;2023-02-28T08:57:27;4.80;77.60
5554;DHT22;2800;49.528;8.666;2023-02-28T08:59:52;5.20;75.60
5554;DHT22;2800;49.528;8.666;2023-02-28T09:02:18;5.40;75.90
5554;DHT22;2800;49.528;8.666;2023-02-28T09:04:44;5.60;74.60
5554;DHT22;2800;49.528;8.666;2023-02-28T09:07:12;5.60;71.20
5554;DHT22;2800;49.528;8.666;2023-02-28T09:09:38;4.80;67.50
5554;DHT22;2800;49.528;8.666;2023-02-28T09:12:19;5.20;68.40
5554;DHT22;2800;49.528;8.666;2023-02-28T09:14:45;4.90;69.10
5554;DHT22;2800;49.528;8.666;2023-02-28T09:17:10;5.60;69.50
5554;DHT22;2800;49.528;8.666;2023-02-28T09:19:36;5.60;66.30
5554;DHT22;2800;49.528;8.666;2023-02-28T09:22:02;5.60;63.70
5554;DHT22;2800;49.528;8.666;2023-02-28T09:24:27;5.30;61.00
5554;DHT22;2800;49.528;8.666;2023-02-28T09:26:53;4.80;61.60
5554;DHT22;2800;49.528;8.666;2023-02-28T09:29:18;4.80;63.00
5554;DHT22;2800;49.528;8.666;2023-02-28T09:31:44;5.60;64.60
5554;DHT22;2800;49.528;8.666;2023-02-28T09:34:10;6.00;64.50
5554;DHT22;2800;49.528;8.666;2023-02-28T09:36:36;5.30;60.80
5554;DHT22;2800;49.528;8.666;2023-02-28T09:39:04;5.60;59.80
5554;DHT22;2800;49.528;8.666;2023-02-28T09:41:37;5.20;60.10
5554;DHT22;2800;49.528;8.666;2023-02-28T09:44:06;6.10;61.30
5554;DHT22;2800;49.528;8.666;2023-02-28T09:46:34;6.50;59.00
5554;DHT22;2800;49.528;8.666;2023-02-28T09:49:07;6.10;59.00
5554;DHT22;2800;49.528;8.666;2023-02-28T09:54:32;5.40;55.60
5554;DHT22;2800;49.528;8.666;2023-02-28T09:57:06;5.50;56.30
5554;DHT22;2800;49.528;8.666;2023-02-28T10:04:57;5.40;55.10
5554;DHT22;2800;49.528;8.666;2023-02-28T10:07:59;5.00;55.00
5554;DHT22;2800;49.528;8.666;2023-02-28T10:10:49;5.10;54.00
5554;DHT22;2800;49.528;8.666;2023-02-28T10:16:16;6.90;56.30
5554;DHT22;2800;49.528;8.666;2023-02-28T10:19:02;6.50;53.00
5554;DHT22;2800;49.528;8.666;2023-02-28T10:21:36;7.00;54.20
5554;DHT22;2800;49.528;8.666;2023-02-28T10:26:44;6.50;51.30
5554;DHT22;2800;49.528;8.666;2023-02-28T10:29:10;5.90;50.60
5554;DHT22;2800;49.528;8.666;2023-02-28T10:31:36;6.60;52.10
5554;DHT22;2800;49.528;8.666;2023-02-28T10:34:02;6.70;50.90
5554;DHT22;2800;49.528;8.666;2023-02-28T10:36:29;5.60;49.40
5554;DHT22;2800;49.528;8.666;2023-02-28T10:38:54;5.10;50.20
5554;DHT22;2800;49.528;8.666;2023-02-28T10:41:31;4.80;50.20
5554;DHT22;2800;49.528;8.666;2023-02-28T10:44:23;4.90;49.60
5554;DHT22;2800;49.528;8.666;2023-02-28T10:46:49;5.50;49.70
5554;DHT22;2800;49.528;8.666;2023-02-28T10:49:28;5.30;50.40
5554;DHT22;2800;49.528;8.666;2023-02-28T10:51:59;5.70;51.50
5554;DHT22;2800;49.528;8.666;2023-02-28T10:54:35;5.80;50.60
5554;DHT22;2800;49.528;8.666;2023-02-28T10:57:23;6.00;49.90
5554;DHT22;2800;49.528;8.666;2023-02-28T10:59:53;5.80;49.80
5554;DHT22;2800;49.528;8.666;2023-02-28T11:02:33;6.30;51.10
5554;DHT22;2800;49.528;8.666;2023-02-28T11:04:59;7.00;50.80
5554;DHT22;2800;49.528;8.666;2023-02-28T11:07:25;6.90;50.10
5554;DHT22;2800;49.528;8.666;2023-02-28T11:09:54;6.70;50.10
5554;DHT22;2800;49.528;8.666;2023-02-28T11:12:23;6.70;49.80
5554;DHT22;2800;49.528;8.666;2023-02-28T11:14:57;6.50;49.00
5554;DHT22;2800;49.528;8.666;2023-02-28T11:17:30;6.80;50.90
5554;DHT22;2800;49.528;8.666;2023-02-28T11:20:02;7.30;50.70
5554;DHT22;2800;49.528;8.666;2023-02-28T11:22:32;7.70;50.30
5554;DHT22;2800;49.528;8.666;2023-02-28T11:25:07;8.30;50.10
5554;DHT22;2800;49.528;8.666;2023-02-28T11:30:36;8.50;47.00
5554;DHT22;2800;49.528;8.666;2023-02-28T11:33:32;8.10;46.60
5554;DHT22;2800;49.528;8.666;2023-02-28T11:36:03;7.90;45.50
5554;DHT22;2800;49.528;8.666;2023-02-28T11:38:29;7.10;44.80
5554;DHT22;2800;49.528;8.666;2023-02-28T11:41:20;7.10;45.70
5554;DHT22;2800;49.528;8.666;2023-02-28T11:49:26;9.20;45.70
5554;DHT22;2800;49.528;8.666;2023-02-28T11:54:49;10.10;43.90
5554;DHT22;2800;49.528;8.666;2023-02-28T12:05:55;11.50;40.70
5554;DHT22;2800;49.528;8.666;2023-02-28T12:11:25;10.70;39.00
5554;DHT22;2800;49.528;8.666;2023-02-28T12:17:01;10.00;36.50
5554;DHT22;2800;49.528;8.666;2023-02-28T12:20:01;9.30;36.20
5554;DHT22;2800;49.528;8.666;2023-02-28T12:22:41;8.10;34.60
5554;DHT22;2800;49.528;8.666;2023-02-28T12:25:43;7.80;33.30
5554;DHT22;2800;49.528;8.666;2023-02-28T12:28:16;8.20;34.50
5554;DHT22;2800;49.528;8.666;2023-02-28T12:30:58;8.20;35.20
5554;DHT22;2800;49.528;8.666;2023-02-28T12:33:30;9.80;36.70
5554;DHT22;2800;49.528;8.666;2023-02-28T12:35:59;9.70;36.80
5554;DHT22;2800;49.528;8.666;2023-02-28T12:41:05;9.50;35.50
5554;DHT22;2800;49.528;8.666;2023-02-28T12:43:40;9.90;37.10
5554;DHT22;2800;49.528;8.666;2023-02-28T12:46:20;9.30;36.10
5554;DHT22;2800;49.528;8.666;2023-02-28T12:48:50;9.10;35.70
5554;DHT22;2800;49.528;8.666;2023-02-28T12:51:18;9.00;34.50
5554;DHT22;2800;49.528;8.666;2023-02-28T12:53:57;9.60;35.90
5554;DHT22;2800;49.528;8.666;2023-02-28T12:58:54;10.10;35.50
5554;DHT22;2800;49.528;8.666;2023-02-28T13:07:04;10.60;36.10
5554;DHT22;2800;49.528;8.666;2023-02-28T13:09:33;11.80;36.70
5554;DHT22;2800;49.528;8.666;2023-02-28T13:11:59;12.20;37.00
5554;DHT22;2800;49.528;8.666;2023-02-28T13:14:36;12.20;36.00
5554;DHT22;2800;49.528;8.666;2023-02-28T13:17:10;10.40;34.00
5554;DHT22;2800;49.528;8.666;2023-02-28T13:20:00;9.00;32.60
5554;DHT22;2800;49.528;8.666;2023-02-28T13:22:48;9.60;34.60
5554;DHT22;2800;49.528;8.666;2023-02-28T13:28:09;10.80;34.60
5554;DHT22;2800;49.528;8.666;2023-02-28T13:38:48;10.20;34.70
5554;DHT22;2800;49.528;8.666;2023-02-28T13:41:46;10.20;34.60
5554;DHT22;2800;49.528;8.666;2023-02-28T13:44:22;10.40;34.40
5554;DHT22;2800;49.528;8.666;2023-02-28T13:51:51;10.70;34.30
5554;DHT22;2800;49.528;8.666;2023-02-28T14:00:28;10.60;34.20
5554;DHT22;2800;49.528;8.666;2023-02-28T14:05:41;11.20;34.80
5554;DHT22;2800;49.528;8.666;2023-02-28T14:08:20;10.40;33.60
5554;DHT22;2800;49.528;8.666;2023-02-28T14:11:02;10.70;34.00
5554;DHT22;2800;49.528;8.666;2023-02-28T14:13:44;11.30;34.70
5554;DHT22;2800;49.528;8.666;2023-02-28T14:16:20;11.90;35.00
5554;DHT22;2800;49.528;8.666;2023-02-28T14:19:10;11.40;34.80
5554;DHT22;2800;49.528;8.666;2023-02-28T14:21:39;10.00;32.20
5554;DHT22;2800;49.528;8.666;2023-02-28T14:24:42;10.90;34.90
5554;DHT22;2800;49.528;8.666;2023-02-28T14:27:47;10.80;33.70
5554;DHT22;2800;49.528;8.666;2023-02-28T14:33:31;11.20;33.50
5554;DHT22;2800;49.528;8.666;2023-02-28T14:38:50;11.20;33.80
5554;DHT22;2800;49.528;8.666;2023-02-28T14:41:44;9.40;32.50
5554;DHT22;2800;49.528;8.666;2023-02-28T14:44:21;9.00;32.90
5554;DHT22;2800;49.528;8.666;2023-02-28T14:46:53;10.90;35.00
5554;DHT22;2800;49.528;8.666;2023-02-28T14:49:24;9.00;32.80
5554;DHT22;2800;49.528;8.666;2023-02-28T14:52:06;10.00;33.90
5554;DHT22;2800;49.528;8.666;2023-02-28T14:54:36;9.90;34.90
5554;DHT22;2800;49.528;8.666;2023-02-28T14:57:02;10.00;33.60
5554;DHT22;2800;49.528;8.666;2023-02-28T14:59:33;10.10;33.50
5554;DHT22;2800;49.528;8.666;2023-02-28T15:02:22;10.30;33.40
5554;DHT22;2800;49.528;8.666;2023-02-28T15:04:59;10.10;33.40
5554;DHT22;2800;49.528;8.666;2023-02-28T15:07:25;9.60;34.10
5554;DHT22;2800;49.528;8.666;2023-02-28T15:12:41;9.50;33.30
5554;DHT22;2800;49.528;8.666;2023-02-28T15:15:18;9.80;34.40
5554;DHT22;2800;49.528;8.666;2023-02-28T15:17:49;9.60;34.30
5554;DHT22;2800;49.528;8.666;2023-02-28T15:20:16;10.00;34.70
5554;DHT22;2800;49.528;8.666;2023-02-28T15:22:42;10.50;33.80
5554;DHT22;2800;49.528;8.666;2023-02-28T15:25:10;9.20;33.60
5554;DHT22;2800;49.528;8.666;2023-02-28T15:27:44;9.10;32.80
5554;DHT22;2800;49.528;8.666;2023-02-28T15:30:29;8.80;33.30
5554;DHT22;2800;49.528;8.666;2023-02-28T15:35:39;10.20;34.20
5554;DHT22;2800;49.528;8.666;2023-02-28T15:38:27;10.40;34.50
5554;DHT22;2800;49.528;8.666;2023-02-28T15:40:57;10.50;33.60
5554;DHT22;2800;49.528;8.666;2023-02-28T15:46:04;10.40;33.60
5554;DHT22;2800;49.528;8.666;2023-02-28T15:48:34;10.70;33.70
5554;DHT22;2800;49.528;8.666;2023-02-28T15:51:07;10.90;33.60
5554;DHT22;2800;49.528;8.666;2023-02-28T15:53:41;10.90;33.70
5554;DHT22;2800;49.528;8.666;2023-02-28T15:56:23;11.00;33.10
5554;DHT22;2800;49.528;8.666;2023-02-28T15:58:52;10.40;33.10
5554;DHT22;2800;49.528;8.666;2023-02-28T16:01:30;10.50;33.30
5554;DHT22;2800;49.528;8.666;2023-02-28T16:04:00;10.30;32.60
5554;DHT22;2800;49.528;8.666;2023-02-28T16:09:01;9.50;32.90
5554;DHT22;2800;49.528;8.666;2023-02-28T16:11:27;9.00;32.90
5554;DHT22;2800;49.528;8.666;2023-02-28T16:13:53;9.10;33.00
5554;DHT22;2800;49.528;8.666;2023-02-28T16:16:22;9.10;32.40
5554;DHT22;2800;49.528;8.666;2023-02-28T16:18:48;8.90;33.60
5554;DHT22;2800;49.528;8.666;2023-02-28T16:21:14;8.70;32.70
5554;DHT22;2800;49.528;8.666;2023-02-28T16:23:39;7.90;31.90
5554;DHT22;2800;49.528;8.666;2023-02-28T16:26:05;7.90;32.40
5554;DHT22;2800;49.528;8.666;2023-02-28T16:28:34;7.60;32.20
5554;DHT22;2800;49.528;8.666;2023-02-28T16:31:01;7.70;33.30
5554;DHT22;2800;49.528;8.666;2023-02-28T16:33:31;7.80;33.10
5554;DHT22;2800;49.528;8.666;2023-02-28T16:35:57;7.80;33.10
5554;DHT22;2800;49.528;8.666;2023-02-28T16:38:22;7.60;32.50
5554;DHT22;2800;49.528;8.666;2023-02-28T16:40:50;7.50;31.90
5554;DHT22;2800;49.528;8.666;2023-02-28T16:43:19;7.10;32.20
5554;DHT22;2800;49.528;8.666;2023-02-28T16:45:47;7.00;32.50
5554;DHT22;2800;49.528;8.666;2023-02-28T16:48:14;6.80;32.90
5554;DHT22;2800;49.528;8.666;2023-02-28T16:50:41;6.80;33.10
5554;DHT22;2800;49.528;8.666;2023-02-28T16:53:07;6.30;32.30
5554;DHT22;2800;49.528;8.666;2023-02-28T16:55:34;6.20;32.20
5554;DHT22;2800;49.528;8.666;2023-02-28T16:58:01;6.20;32.30
5554;DHT22;2800;49.528;8.666;2023-02-28T17:00:28;6.10;33.30
5554;DHT22;2800;49.528;8.666;2023-02-28T17:02:54;5.80;32.30
5554;DHT22;2800;49.528;8.666;2023-02-28T17:05:20;5.70;32.20
5554;DHT22;2800;49.528;8.666;2023-02-28T17:07:47;5.40;32.10
5554;DHT22;2800;49.528;8.666;2023-02-28T17:10:16;5.30;32.20
5554;DHT22;2800;49.528;8.666;2023-02-28T17:12:42;5.20;32.80
5554;DHT22;2800;49.528;8.666;2023-02-28T17:15:10;5.20;34.10
5554;DHT22;2800;49.528;8.666;2023-02-28T17:17:35;5.20;33.80
5554;DHT22;2800;49.528;8.666;2023-02-28T17:20:02;5.10;34.10
5554;DHT22;2800;49.528;8.666;2023-02-28T17:22:28;5.00;33.30
5554;DHT22;2800;49.528;8.666;2023-02-28T17:24:53;4.80;32.80
5554;DHT22;2800;49.528;8.666;2023-02-28T17:27:22;4.60;33.50
5554;DHT22;2800;49.528;8.666;2023-02-28T17:29:48;4.50;34.20
5554;DHT22;2800;49.528;8.666;2023-02-28T17:32:14;4.50;34.40
5554;DHT22;2800;49.528;8.666;2023-02-28T17:34:39;4.50;34.60
5554;DHT22;2800;49.528;8.666;2023-02-28T17:37:05;4.50;34.20
5554;DHT22;2800;49.528;8.666;2023-02-28T17:39:30;4.40;34.70
5554;DHT22;2800;49.528;8.666;2023-02-28T17:41:56;4.40;34.90
5554;DHT22;2800;49.528;8.666;2023-02-28T17:44:23;4.30;34.90
5554;DHT22;2800;49.528;8.666;2023-02-28T17:46:49;4.30;35.30
5554;DHT22;2800;49.528;8.666;2023-02-28T17:49:16;4.30;35.50
5554;DHT22;2800;49.528;8.666;2023-02-28T17:51:42;4.20;35.80
5554;DHT22;2800;49.528;8.666;2023-02-28T17:54:07;4.20;35.90
5554;DHT22;2800;49.528;8.666;2023-02-28T17:56:33;4.10;35.10
5554;DHT22;2800;49.528;8.666;2023-02-28T17:58:59;4.10;36.70
5554;DHT22;2800;49.528;8.666;2023-02-28T18:01:25;4.00;36.40
5554;DHT22;2800;49.528;8.666;2023-02-28T18:03:51;4.00;36.70
5554;DHT22;2800;49.528;8.666;2023-02-28T18:06:24;3.80;37.40
5554;DHT22;2800;49.528;8.666;2023-02-28T18:08:51;3.80;37.70
5554;DHT22;2800;49.528;8.666;2023-02-28T18:11:21;3.70;38.60
5554;DHT22;2800;49.528;8.666;2023-02-28T18:13:49;3.60;39.90
5554;DHT22;2800;49.528;8.666;2023-02-28T18:16:16;3.50;40.40
5554;DHT22;2800;49.528;8.666;2023-02-28T18:18:42;3.30;42.00
5554;DHT22;2800;49.528;8.666;2023-02-28T18:21:10;3.20;43.50
5554;DHT22;2800;49.528;8.666;2023-02-28T18:23:36;3.10;44.80